aviador You're here:

KROG Decoded Metar

ROGERS in AR, USA
Report Time2017-09-20 19:58:00
UTC Time2017-09-20 20:06:09
Flight Rules vfr VFR
Wind170° at 12 kt
W.Decomp.*RWY 20: 9.9 kt HW 6.7 kt LCW
W.Rank170° ranks 7
Current wind is above 170° avg. (9.5)
Visibility9999 m
Phenomena:N/A
Clouds:N/A
Expected CloudBase > 4,400 ft AGL from Temp-Dew spread
CeilingNone
Temp33°C (ISA +21)
Dew Point22°C (52% RH)
Heat Index36.9°C
QNH1013 hPa
Density Alt4,068 ft
Elevation1,362 ft
Report Wrong Elevation
Raw Report
KROG 201958Z 17012KT 10SM CLR 33/22 A2990 RMK AO2 SLP108 T03280217
$=

Extra information for KROG:More info

Metar Taf Metar & Taf Last 4 Metars F.Rules Stats Wind Profile Meteogram Temp Stats Airport Information Weather charts Add Link Nearby VenuesMetar ALERT Operation Metar Decoded Social comments

AIRNAV info for KROG